createdAt,value
2016-05-10T00:00:32.752Z,34.51
2016-05-10T00:01:32.941Z,33.84
2016-05-10T00:02:32.960Z,34.03
2016-05-10T00:03:32.994Z,34.12
2016-05-10T00:04:33.013Z,34.41
2016-05-10T00:05:33.030Z,34.22
2016-05-10T00:06:33.065Z,34.22
2016-05-10T00:07:33.099Z,34.03
2016-05-10T00:08:33.117Z,34.41
2016-05-10T00:09:33.151Z,34.41
2016-05-10T00:10:33.169Z,34.8
2016-05-10T00:11:33.297Z,34.51
2016-05-10T00:12:33.264Z,34.61
2016-05-10T00:13:33.324Z,34.8
2016-05-10T00:14:33.383Z,34.99
2016-05-10T00:15:33.458Z,34.89
2016-05-10T00:16:33.534Z,34.8
2016-05-10T00:17:33.575Z,34.89
2016-05-10T00:18:33.608Z,34.89
2016-05-10T00:19:33.656Z,34.8
2016-05-10T00:20:33.690Z,34.8
2016-05-10T00:21:33.738Z,34.8
2016-05-10T00:22:33.780Z,35.08
2016-05-10T00:23:33.820Z,34.99
2016-05-10T00:24:33.688Z,35.06
2016-05-10T00:25:33.882Z,35.26
2016-05-10T00:26:33.906Z,35.26
2016-05-10T00:27:33.928Z,34.88
2016-05-10T00:28:33.808Z,35.26
2016-05-10T00:29:34.063Z,35.16
2016-05-10T00:30:34.020Z,35.36
2016-05-10T00:31:34.056Z,35.36
2016-05-10T00:32:34.122Z,35.06
2016-05-10T00:33:34.094Z,35.16
2016-05-10T00:34:33.972Z,35.16
2016-05-10T00:35:34.148Z,35.26
2016-05-10T00:36:34.198Z,35.26
2016-05-10T00:37:34.201Z,35.16
2016-05-10T00:38:34.236Z,35.36
2016-05-10T00:39:34.207Z,35.16
2016-05-10T00:40:35.569Z,35.26
2016-05-10T00:41:34.307Z,35.16
2016-05-10T00:42:34.341Z,35.45
2016-05-10T00:43:34.360Z,35.36
2016-05-10T00:44:35.080Z,35.45
2016-05-10T00:45:34.428Z,35.45
2016-05-10T00:46:34.540Z,35.06
2016-05-10T00:47:34.464Z,35.16
2016-05-10T00:48:34.499Z,35.36
2016-05-10T00:49:34.532Z,35.16
2016-05-10T00:50:34.551Z,35.16
2016-05-10T00:51:34.584Z,35.45
2016-05-10T00:52:34.602Z,35.45
2016-05-10T00:53:34.637Z,35.64
2016-05-10T00:54:34.655Z,35.55
2016-05-10T00:55:34.674Z,35.45
2016-05-10T00:56:34.707Z,35.43
2016-05-10T00:57:34.726Z,35.53
2016-05-10T00:58:34.759Z,35.45
2016-05-10T00:59:34.637Z,35.72
2016-05-10T01:00:34.812Z,35.91
2016-05-10T01:01:34.673Z,36.01
2016-05-10T01:02:34.864Z,35.82
2016-05-10T01:03:34.882Z,36.11
2016-05-10T01:04:34.917Z,36.01
2016-05-10T01:05:34.934Z,35.91
2016-05-10T01:06:34.969Z,36.3
2016-05-10T01:07:35.003Z,36.2
2016-05-10T01:08:34.864Z,36.4
2016-05-10T01:09:35.039Z,36.01
2016-05-10T01:10:35.058Z,36.2
2016-05-10T01:11:35.107Z,36.11
2016-05-10T01:12:35.125Z,36.3
2016-05-10T01:13:35.144Z,36.01
2016-05-10T01:14:35.022Z,36.2
2016-05-10T01:15:35.196Z,36.3
2016-05-10T01:16:35.230Z,36.11
2016-05-10T01:17:35.249Z,36.4
2016-05-10T01:18:35.266Z,36.58
2016-05-10T01:19:35.316Z,36.4
2016-05-10T01:20:35.335Z,36.4
2016-05-10T01:21:35.196Z,36.58
2016-05-10T01:22:35.402Z,36.49
2016-05-10T01:23:35.405Z,36.58
2016-05-10T01:24:35.424Z,36.58
2016-05-10T01:25:35.457Z,36.68
2016-05-10T01:26:35.476Z,36.68
2016-05-10T01:27:35.353Z,36.88
2016-05-10T01:28:35.528Z,36.78
2016-05-10T01:29:35.406Z,36.78
2016-05-10T01:30:35.579Z,36.66
2016-05-10T01:31:35.614Z,36.58
2016-05-10T01:32:35.476Z,36.76
2016-05-10T01:33:35.667Z,36.76
2016-05-10T01:34:35.684Z,36.58
2016-05-10T01:35:35.703Z,36.47
2016-05-10T01:36:35.737Z,36.76
2016-05-10T01:37:35.770Z,36.38
2016-05-10T01:38:35.789Z,36.86
2016-05-10T01:39:35.808Z,36.95
2016-05-10T01:40:35.842Z,36.66
2016-05-10T01:41:35.719Z,36.47
2016-05-10T01:42:35.894Z,37.24
2016-05-10T01:43:35.911Z,37.15
2016-05-10T01:44:35.914Z,37.05
2016-05-10T01:45:35.964Z,37.05
2016-05-10T01:46:35.998Z,37.05
2016-05-10T01:47:36.017Z,36.95
2016-05-10T01:48:36.050Z,37.05
2016-05-10T01:49:36.068Z,37.05
2016-05-10T01:50:36.102Z,37.05
2016-05-10T01:51:36.121Z,37.05
2016-05-10T01:52:35.983Z,37.62
2016-05-10T01:53:36.174Z,37.53
2016-05-10T01:54:36.191Z,37.43
2016-05-10T01:55:36.226Z,37.72
2016-05-10T01:56:36.103Z,37.43
2016-05-10T01:57:36.278Z,37.72
2016-05-10T01:58:36.296Z,37.91
2016-05-10T01:59:36.330Z,37.53
2016-05-10T02:00:36.348Z,37.62
2016-05-10T02:01:36.382Z,37.53
2016-05-10T02:02:36.400Z,37.51
2016-05-10T02:03:36.278Z,37.41
2016-05-10T02:04:36.453Z,37.41
2016-05-10T02:05:36.471Z,37.24
2016-05-10T02:06:36.506Z,38.09
2016-05-10T02:07:36.539Z,37.99
2016-05-10T02:08:36.556Z,38.09
2016-05-10T02:09:36.575Z,38.09
2016-05-10T02:10:36.609Z,37.91
2016-05-10T02:11:36.644Z,37.89
2016-05-10T02:12:36.662Z,38.09
2016-05-10T02:13:36.680Z,37.89
2016-05-10T02:14:36.855Z,38.09
2016-05-10T02:15:36.747Z,38.09
2016-05-10T02:16:36.750Z,38.18
2016-05-10T02:17:36.785Z,37.99
2016-05-10T02:18:36.803Z,37.51
2016-05-10T02:19:36.836Z,38.09
2016-05-10T02:20:36.855Z,38.37
2016-05-10T02:21:36.889Z,38.37
2016-05-10T02:22:36.923Z,38.28
2016-05-10T02:23:36.926Z,38.37
2016-05-10T02:24:36.960Z,38.28
2016-05-10T02:25:36.994Z,38.28
2016-05-10T02:26:36.855Z,38.37
2016-05-10T02:27:37.030Z,38.28
2016-05-10T02:28:37.065Z,38.37
2016-05-10T02:29:37.098Z,38.18
2016-05-10T02:30:37.132Z,38.37
2016-05-10T02:31:37.134Z,38.47
2016-05-10T02:32:37.153Z,38.28
2016-05-10T02:33:37.187Z,38.09
2016-05-10T02:34:37.049Z,38.56
2016-05-10T02:35:37.240Z,38.66
2016-05-10T02:36:37.257Z,38.66
2016-05-10T02:37:37.291Z,38.47
2016-05-10T02:38:37.309Z,38.47
2016-05-10T02:39:37.187Z,38.37
2016-05-10T02:40:37.378Z,38.37
2016-05-10T02:41:37.396Z,38.56
2016-05-10T02:42:37.398Z,38.93
2016-05-10T02:43:37.433Z,38.56
2016-05-10T02:44:37.466Z,38.54
2016-05-10T02:45:37.486Z,38.74
2016-05-10T02:46:37.519Z,38.54
2016-05-10T02:47:37.536Z,38.54
2016-05-10T02:48:37.556Z,38.47
2016-05-10T02:49:37.589Z,38.64
2016-05-10T02:50:37.607Z,38.54
2016-05-10T02:51:37.689Z,38.64
2016-05-10T02:52:37.660Z,38.64
2016-05-10T02:53:37.678Z,38.64
2016-05-10T02:54:37.713Z,38.64
2016-05-10T02:55:37.746Z,38.74
2016-05-10T02:56:37.593Z,38.64
2016-05-10T02:57:37.782Z,38.64
2016-05-10T02:58:37.801Z,38.64
2016-05-10T02:59:38.007Z,38.54
2016-05-10T03:00:37.868Z,38.54
2016-05-10T03:01:37.872Z,38.74
2016-05-10T03:02:37.906Z,38.54
2016-05-10T03:03:37.924Z,38.93
2016-05-10T03:04:37.957Z,38.93
2016-05-10T03:05:37.976Z,39.03
2016-05-10T03:06:38.010Z,38.93
2016-05-10T03:07:38.028Z,38.83
2016-05-10T03:08:38.047Z,38.64
2016-05-10T03:09:38.081Z,38.93
2016-05-10T03:10:37.942Z,38.93
2016-05-10T03:11:38.133Z,39.03
2016-05-10T03:12:38.151Z,38.83
2016-05-10T03:13:38.170Z,39.03
2016-05-10T03:14:38.203Z,39.12
2016-05-10T03:15:38.222Z,39.12
2016-05-10T03:16:38.255Z,39.31
2016-05-10T03:17:38.118Z,39.41
2016-05-10T03:18:38.308Z,39.2
2016-05-10T03:19:38.326Z,39.5
2016-05-10T03:20:38.345Z,39.31
2016-05-10T03:21:38.378Z,39.41
2016-05-10T03:22:38.396Z,39.29
2016-05-10T03:23:38.430Z,39.39
2016-05-10T03:24:38.449Z,39.39
2016-05-10T03:25:38.327Z,39.39
2016-05-10T03:26:38.502Z,39.87
2016-05-10T03:27:38.519Z,39.58
2016-05-10T03:28:38.538Z,39.58
2016-05-10T03:29:38.822Z,39.68
2016-05-10T03:30:38.606Z,39.48
2016-05-10T03:31:38.624Z,39.58
2016-05-10T03:32:38.643Z,39.48
2016-05-10T03:33:38.660Z,39.68
2016-05-10T03:34:38.695Z,39.68
2016-05-10T03:35:38.713Z,39.68
2016-05-10T03:36:38.747Z,39.68
2016-05-10T03:37:38.766Z,39.39
2016-05-10T03:38:38.798Z,39.68
2016-05-10T03:39:38.661Z,39.58
2016-05-10T03:40:38.836Z,39.77
2016-05-10T03:41:38.870Z,39.68
2016-05-10T03:42:38.904Z,39.77
2016-05-10T03:43:38.922Z,39.97
2016-05-10T03:44:39.097Z,39.68
2016-05-10T03:45:38.959Z,39.68
2016-05-10T03:46:38.836Z,39.97
2016-05-10T03:47:39.011Z,39.97
2016-05-10T03:48:39.030Z,39.77
2016-05-10T03:49:39.064Z,39.97
2016-05-10T03:50:39.081Z,39.68
2016-05-10T03:51:39.115Z,40.35
2016-05-10T03:52:39.133Z,39.87
2016-05-10T03:53:39.152Z,39.87
2016-05-10T03:54:39.186Z,39.87
2016-05-10T03:55:39.205Z,39.87
2016-05-10T03:56:39.239Z,39.68
2016-05-10T03:57:39.257Z,39.87
2016-05-10T03:58:39.290Z,40.06
2016-05-10T03:59:39.418Z,40.16
2016-05-10T04:00:39.327Z,39.87
2016-05-10T04:01:39.361Z,39.87
2016-05-10T04:02:39.379Z,40.06
2016-05-10T04:03:39.413Z,39.97
2016-05-10T04:04:39.431Z,39.87
2016-05-10T04:05:39.450Z,40.06
2016-05-10T04:06:39.468Z,40.25
2016-05-10T04:07:39.502Z,40.06
2016-05-10T04:08:39.521Z,39.97
2016-05-10T04:09:39.554Z,40.16
2016-05-10T04:10:39.573Z,40.16
2016-05-10T04:11:39.435Z,40.16
2016-05-10T04:12:39.625Z,39.87
2016-05-10T04:13:39.643Z,39.97
2016-05-10T04:14:39.662Z,39.94
2016-05-10T04:15:39.695Z,39.97
2016-05-10T04:16:39.714Z,40.06
2016-05-10T04:17:39.748Z,40.06
2016-05-10T04:18:39.766Z,39.85
2016-05-10T04:19:39.784Z,40.52
2016-05-10T04:20:39.818Z,40.33
2016-05-10T04:21:39.836Z,40.33
2016-05-10T04:22:39.855Z,40.33
2016-05-10T04:23:39.889Z,40.33
2016-05-10T04:24:39.767Z,40.42
2016-05-10T04:25:39.926Z,40.71
2016-05-10T04:26:39.960Z,40.33
2016-05-10T04:27:39.977Z,40.33
2016-05-10T04:28:40.012Z,40.23
2016-05-10T04:29:39.874Z,40.61
2016-05-10T04:30:40.049Z,40.33
2016-05-10T04:31:40.083Z,40.23
2016-05-10T04:32:39.944Z,40.52
2016-05-10T04:33:40.134Z,40.71
2016-05-10T04:34:40.154Z,40.23
2016-05-10T04:35:40.171Z,40.61
2016-05-10T04:36:40.205Z,40.42
2016-05-10T04:37:40.224Z,40.42
2016-05-10T04:38:40.242Z,40.71
2016-05-10T04:39:40.276Z,40.42
2016-05-10T04:40:40.387Z,40.71
2016-05-10T04:41:40.187Z,40.71
2016-05-10T04:42:40.362Z,40.81
2016-05-10T04:43:40.381Z,40.9
2016-05-10T04:44:40.243Z,40.9
2016-05-10T04:45:40.417Z,41.09
2016-05-10T04:46:40.450Z,41.09
2016-05-10T04:47:40.469Z,41.09
2016-05-10T04:48:40.487Z,41.09
2016-05-10T04:49:40.506Z,41.09
2016-05-10T04:50:40.540Z,40.9
2016-05-10T04:51:40.558Z,41.09
2016-05-10T04:52:40.576Z,41
2016-05-10T04:53:40.610Z,41
2016-05-10T04:54:40.644Z,41.19
2016-05-10T04:55:40.663Z,41
2016-05-10T04:56:40.680Z,40.9
2016-05-10T04:57:40.700Z,40.81
2016-05-10T04:58:40.577Z,40.9
2016-05-10T04:59:41.799Z,41
2016-05-10T05:00:40.786Z,41.09
2016-05-10T05:01:40.647Z,40.9
2016-05-10T05:02:40.822Z,40.9
2016-05-10T05:03:40.856Z,40.9
2016-05-10T05:04:40.702Z,40.81
2016-05-10T05:05:40.893Z,40.9
2016-05-10T05:06:40.910Z,41.38
2016-05-10T05:07:40.945Z,41.28
2016-05-10T05:08:40.963Z,41.67
2016-05-10T05:09:40.997Z,41.48
2016-05-10T05:10:40.860Z,41.77
2016-05-10T05:11:41.034Z,41.57
2016-05-10T05:12:40.911Z,41.67
2016-05-10T05:13:41.087Z,41.77
2016-05-10T05:14:41.886Z,41.48
2016-05-10T05:15:41.138Z,41.67
2016-05-10T05:16:41.157Z,41.96
2016-05-10T05:17:41.175Z,41.96
2016-05-10T05:18:41.209Z,41.57
2016-05-10T05:19:41.227Z,41.57
2016-05-10T05:20:41.245Z,42.05
2016-05-10T05:21:41.280Z,41.96
2016-05-10T05:22:41.297Z,42.05
2016-05-10T05:23:41.175Z,41.96
2016-05-10T05:24:41.350Z,41.96
2016-05-10T05:25:41.384Z,41.96
2016-05-10T05:26:41.402Z,41.96
2016-05-10T05:27:41.421Z,41.86
2016-05-10T05:28:41.454Z,42.24
2016-05-10T05:29:41.316Z,42.24
2016-05-10T05:30:41.491Z,42.05
2016-05-10T05:31:41.509Z,42.24
2016-05-10T05:32:41.528Z,42.07
2016-05-10T05:33:41.578Z,42.44
2016-05-10T05:34:41.580Z,42.27
2016-05-10T05:35:41.598Z,42.17
2016-05-10T05:36:41.632Z,42.36
2016-05-10T05:37:41.651Z,42.36
2016-05-10T05:38:41.528Z,43.03
2016-05-10T05:39:41.703Z,42.74
2016-05-10T05:40:41.721Z,42.65
2016-05-10T05:41:41.755Z,42.65
2016-05-10T05:42:41.773Z,42.65
2016-05-10T05:43:41.807Z,42.74
2016-05-10T05:44:43.092Z,43.23
2016-05-10T05:45:41.844Z,43.13
2016-05-10T05:46:41.878Z,42.65
2016-05-10T05:47:41.896Z,43.41
2016-05-10T05:48:41.914Z,43.32
2016-05-10T05:49:41.949Z,43.32
2016-05-10T05:50:41.967Z,42.84
2016-05-10T05:51:41.985Z,43.03
2016-05-10T05:52:42.019Z,43.23
2016-05-10T05:53:42.037Z,42.94
2016-05-10T05:54:42.071Z,43.03
2016-05-10T05:55:42.089Z,43.32
2016-05-10T05:56:41.952Z,43.32
2016-05-10T05:57:42.126Z,43.41
2016-05-10T05:58:42.160Z,43.13
2016-05-10T05:59:43.538Z,43.41
2016-05-10T06:00:42.213Z,43.13
2016-05-10T06:01:42.246Z,43.23
2016-05-10T06:02:42.749Z,43.32
2016-05-10T06:03:42.283Z,43.03
2016-05-10T06:04:42.302Z,42.77
2016-05-10T06:05:42.319Z,42.94
2016-05-10T06:06:42.354Z,43.05
2016-05-10T06:07:42.372Z,43.15
2016-05-10T06:08:42.407Z,42.67
2016-05-10T06:09:42.267Z,42.77
2016-05-10T06:10:42.442Z,42.86
2016-05-10T06:11:42.476Z,42.47
2016-05-10T06:12:42.495Z,42.47
2016-05-10T06:13:42.513Z,42.47
2016-05-10T06:14:42.548Z,42.47
2016-05-10T06:15:42.565Z,42.57
2016-05-10T06:16:42.598Z,42.57
2016-05-10T06:17:42.617Z,42.47
2016-05-10T06:18:42.479Z,42.67
2016-05-10T06:19:42.670Z,42.67
2016-05-10T06:20:42.704Z,42.47
2016-05-10T06:21:42.723Z,42.88
2016-05-10T06:22:42.740Z,42.79
2016-05-10T06:23:42.603Z,42.88
2016-05-10T06:24:42.777Z,42.79
2016-05-10T06:25:42.811Z,42.98
2016-05-10T06:26:42.844Z,42.88
2016-05-10T06:27:42.848Z,42.79
2016-05-10T06:28:42.741Z,42.5
2016-05-10T06:29:42.900Z,42.6
2016-05-10T06:30:42.933Z,42.79
2016-05-10T06:31:42.953Z,42.88
2016-05-10T06:32:42.985Z,42.88
2016-05-10T06:33:42.988Z,42.52
2016-05-10T06:34:43.022Z,42.61
2016-05-10T06:35:43.041Z,43
2016-05-10T06:36:43.074Z,42.33
2016-05-10T06:37:43.094Z,42.61
2016-05-10T06:38:42.971Z,42.52
2016-05-10T06:39:43.145Z,42.71
2016-05-10T06:40:43.179Z,42.71
2016-05-10T06:41:43.041Z,42.61
2016-05-10T06:42:43.232Z,42.25
2016-05-10T06:43:43.235Z,43.02
2016-05-10T06:44:43.268Z,42.35
2016-05-10T06:45:43.287Z,42.64
2016-05-10T06:46:43.165Z,42.44
2016-05-10T06:47:43.182Z,42.54
2016-05-10T06:48:43.357Z,42.25
2016-05-10T06:49:43.392Z,42.25
2016-05-10T06:50:43.409Z,42.25
2016-05-10T06:51:43.443Z,42.25
2016-05-10T06:52:43.462Z,41.99
2016-05-10T06:53:43.481Z,42.18
2016-05-10T06:54:43.514Z,42.18
2016-05-10T06:55:43.532Z,42.08
2016-05-10T06:56:43.581Z,41.89
2016-05-10T06:57:43.584Z,41.79
2016-05-10T06:58:43.634Z,41.79
2016-05-10T06:59:44.136Z,41.6
2016-05-10T07:00:43.671Z,41.7
2016-05-10T07:01:43.532Z,41.82
2016-05-10T07:02:43.708Z,41.82
2016-05-10T07:03:43.725Z,41.05
2016-05-10T07:04:43.760Z,41.14
2016-05-10T07:05:43.777Z,41.14
2016-05-10T07:06:43.812Z,41.05
2016-05-10T07:07:43.830Z,41.14
2016-05-10T07:08:43.848Z,41.05
2016-05-10T07:09:43.883Z,40.85
2016-05-10T07:10:43.901Z,40.97
2016-05-10T07:11:43.934Z,40.78
2016-05-10T07:12:43.953Z,40.88
2016-05-10T07:13:43.971Z,40.58
2016-05-10T07:14:43.849Z,40.39
2016-05-10T07:15:44.024Z,40.39
2016-05-10T07:16:44.057Z,40.22
2016-05-10T07:17:44.076Z,40.12
2016-05-10T07:18:44.109Z,40.51
2016-05-10T07:19:44.129Z,40.03
2016-05-10T07:20:44.178Z,39.83
2016-05-10T07:21:44.180Z,39.64
2016-05-10T07:22:44.058Z,39.74
2016-05-10T07:23:44.233Z,39.54
2016-05-10T07:24:44.251Z,39.37
2016-05-10T07:25:44.285Z,39.37
2016-05-10T07:26:44.303Z,39.09
2016-05-10T07:27:44.337Z,38.79
2016-05-10T07:28:44.355Z,38.7
2016-05-10T07:29:44.233Z,38.6
2016-05-10T07:30:44.407Z,38.62
2016-05-10T07:31:44.441Z,38.43
2016-05-10T07:32:44.460Z,38.04
2016-05-10T07:33:44.478Z,37.66
2016-05-10T07:34:44.513Z,36.99
2016-05-10T07:35:44.530Z,38.06
2016-05-10T07:36:44.564Z,38.06
2016-05-10T07:37:44.582Z,37.58
2016-05-10T07:38:44.616Z,37.77
2016-05-10T07:39:44.635Z,37.77
2016-05-10T07:40:44.668Z,37.48
2016-05-10T07:41:44.531Z,37.19
2016-05-10T07:42:44.705Z,36.54
2016-05-10T07:43:44.740Z,37.02
2016-05-10T07:44:44.618Z,36.83
2016-05-10T07:45:44.792Z,36.83
2016-05-10T07:46:44.826Z,36.63
2016-05-10T07:47:44.843Z,36.75
2016-05-10T07:48:45.393Z,36.36
2016-05-10T07:49:44.928Z,36.65
2016-05-10T07:50:45.056Z,36.36
2016-05-10T07:51:44.948Z,35.78
2016-05-10T07:52:44.967Z,35.69
2016-05-10T07:53:45.001Z,35.4
2016-05-10T07:54:45.035Z,35.61
2016-05-10T07:55:45.053Z,35.42
2016-05-10T07:56:45.087Z,35.13
2016-05-10T07:57:45.105Z,34.94
2016-05-10T07:58:45.139Z,34.94
2016-05-10T07:59:45.158Z,34.94
2016-05-10T08:00:45.191Z,34.06
2016-05-10T08:01:45.210Z,34.16
2016-05-10T08:02:45.088Z,34.56
2016-05-10T08:03:45.261Z,34.66
2016-05-10T08:04:45.311Z,34.08
2016-05-10T08:05:45.330Z,33.98
2016-05-10T08:06:45.349Z,34.18
2016-05-10T08:07:45.397Z,33.81
2016-05-10T08:08:45.244Z,33.62
2016-05-10T08:09:45.435Z,33.52
2016-05-10T08:10:45.452Z,33.42
2016-05-10T08:11:45.487Z,33.04
2016-05-10T08:12:45.505Z,33.52
2016-05-10T08:13:45.538Z,33.04
2016-05-10T08:14:45.557Z,33.14
2016-05-10T08:15:45.591Z,33.05
2016-05-10T08:16:45.609Z,32.86
2016-05-10T08:17:45.643Z,32.96
2016-05-10T08:18:45.662Z,32.28
2016-05-10T08:19:45.696Z,32.47
2016-05-10T08:20:45.729Z,32.78
2016-05-10T08:21:45.748Z,32.78
2016-05-10T08:22:45.782Z,32.39
2016-05-10T08:23:45.816Z,32.01
2016-05-10T08:24:45.834Z,32.41
2016-05-10T08:25:45.867Z,32.21
2016-05-10T08:26:45.886Z,31.93
2016-05-10T08:27:45.920Z,31.73
2016-05-10T08:28:45.939Z,31.44
2016-05-10T08:29:47.566Z,31.44
2016-05-10T08:30:46.100Z,31.07
2016-05-10T08:31:46.072Z,31.44
2016-05-10T08:32:45.902Z,31.26
2016-05-10T08:33:46.078Z,30.98
2016-05-10T08:34:46.095Z,30.88
2016-05-10T08:35:46.144Z,30.78
2016-05-10T08:36:46.163Z,31.07
2016-05-10T08:37:46.197Z,30.99
2016-05-10T08:38:46.215Z,30.51
2016-05-10T08:39:46.233Z,30.51
2016-05-10T08:40:46.268Z,30.6
2016-05-10T08:41:46.301Z,30.6
2016-05-10T08:42:46.320Z,30.21
2016-05-10T08:43:46.354Z,30.04
2016-05-10T08:44:46.404Z,29.94
2016-05-10T08:45:46.406Z,29.74
2016-05-10T08:46:46.284Z,29.84
2016-05-10T08:47:46.474Z,29.76
2016-05-10T08:48:46.508Z,29.47
2016-05-10T08:49:46.526Z,29.37
2016-05-10T08:50:46.404Z,28.98
2016-05-10T08:51:46.579Z,29.08
2016-05-10T08:52:46.613Z,29.17
2016-05-10T08:53:46.646Z,28.69
2016-05-10T08:54:46.681Z,28.8
2016-05-10T08:55:46.699Z,28.8
2016-05-10T08:56:46.576Z,28.51
2016-05-10T08:57:46.751Z,28.32
2016-05-10T08:58:46.628Z,28.13
2016-05-10T08:59:46.912Z,28.14
2016-05-10T09:00:46.837Z,27.84
2016-05-10T09:01:46.871Z,27.94
2016-05-10T09:02:46.889Z,28.04
2016-05-10T09:03:46.938Z,27.94
2016-05-10T09:04:46.957Z,28.14
2016-05-10T09:05:46.992Z,27.76
2016-05-10T09:06:47.010Z,27.86
2016-05-10T09:07:47.044Z,27.67
2016-05-10T09:08:47.078Z,27.37
2016-05-10T09:09:47.096Z,27.18
2016-05-10T09:10:47.146Z,27.19
2016-05-10T09:11:55.492Z,27.1
2016-05-10T09:12:47.197Z,27
2016-05-10T09:13:47.216Z,27
2016-05-10T09:14:47.266Z,26.9
2016-05-10T09:15:47.284Z,26.71
2016-05-10T09:16:47.318Z,26.22
2016-05-10T09:17:47.352Z,26.32
2016-05-10T09:18:47.407Z,26.51
2016-05-10T09:19:47.483Z,26.43
2016-05-10T09:20:47.558Z,26.82
2016-05-10T09:21:47.618Z,26.43
2016-05-10T09:22:47.693Z,26.53
2016-05-10T09:23:47.588Z,26.33
2016-05-10T09:24:47.794Z,26.15
2016-05-10T09:25:47.827Z,25.76
2016-05-10T09:26:47.876Z,26.15
2016-05-10T09:27:47.925Z,25.86
2016-05-10T09:28:47.949Z,25.57
2016-05-10T09:29:47.990Z,25.96
2016-05-10T09:30:48.028Z,25.67
2016-05-10T09:31:48.068Z,25.78
2016-05-10T09:32:48.122Z,25.19
2016-05-10T09:33:48.144Z,25.09
2016-05-10T09:34:48.179Z,25.19
2016-05-10T09:35:48.058Z,24.99
2016-05-10T09:36:48.235Z,24.22
2016-05-10T09:37:48.255Z,24.23
2016-05-10T09:38:48.305Z,24.72
2016-05-10T09:39:48.184Z,24.62
2016-05-10T09:40:48.359Z,24.43
2016-05-10T09:41:48.238Z,24.23
2016-05-10T09:42:48.258Z,24.44
2016-05-10T09:43:48.447Z,23.66
2016-05-10T09:44:48.811Z,23.75
2016-05-10T09:45:48.516Z,23.75
2016-05-10T09:46:48.535Z,23.27
2016-05-10T09:47:48.413Z,23.46
2016-05-10T09:48:48.603Z,23.85
2016-05-10T09:49:48.637Z,23.66
2016-05-10T09:50:48.670Z,23.67
2016-05-10T09:51:48.705Z,23.75
2016-05-10T09:52:48.739Z,23.57
2016-05-10T09:53:48.757Z,23.67
2016-05-10T09:54:48.791Z,23.57
2016-05-10T09:55:48.825Z,23.18
2016-05-10T09:56:48.859Z,23.08
2016-05-10T09:57:48.892Z,23.1
2016-05-10T09:58:48.912Z,22.71
2016-05-10T09:59:48.945Z,23.19
2016-05-10T10:00:48.980Z,22.8
2016-05-10T10:01:48.872Z,22.8
2016-05-10T10:02:49.047Z,22.51
2016-05-10T10:03:49.081Z,22.41
2016-05-10T10:04:48.943Z,22.41
2016-05-10T10:05:49.133Z,22.42
2016-05-10T10:06:49.167Z,22.62
2016-05-10T10:07:49.201Z,22.03
2016-05-10T10:08:49.236Z,22.23
2016-05-10T10:09:49.269Z,22.33
2016-05-10T10:10:49.132Z,22.23
2016-05-10T10:11:49.322Z,22.23
2016-05-10T10:12:49.355Z,22.14
2016-05-10T10:13:49.390Z,22.05
2016-05-10T10:14:49.423Z,22.05
2016-05-10T10:15:49.457Z,21.75
2016-05-10T10:16:49.491Z,21.86
2016-05-10T10:17:49.525Z,21.26
2016-05-10T10:18:49.543Z,21.37
2016-05-10T10:19:49.576Z,21.08
2016-05-10T10:20:49.627Z,21.08
2016-05-10T10:21:49.504Z,21.28
2016-05-10T10:22:49.679Z,20.98
2016-05-10T10:23:49.728Z,21.19
2016-05-10T10:24:49.591Z,21.09
2016-05-10T10:25:49.781Z,20.9
2016-05-10T10:26:49.659Z,20.8
2016-05-10T10:27:49.849Z,20.7
2016-05-10T10:28:49.883Z,20.41
2016-05-10T10:29:49.917Z,20.7
2016-05-10T10:30:49.950Z,20.41
2016-05-10T10:31:49.828Z,20.42
2016-05-10T10:32:50.019Z,20.32
2016-05-10T10:33:50.036Z,19.93
2016-05-10T10:34:50.071Z,19.64
2016-05-10T10:35:49.949Z,19.64
2016-05-10T10:36:50.154Z,19.83
2016-05-10T10:37:50.172Z,19.44
2016-05-10T10:38:50.207Z,19.83
2016-05-10T10:39:50.240Z,19.44
2016-05-10T10:40:50.275Z,19.93
2016-05-10T10:41:50.308Z,19.34
2016-05-10T10:42:50.343Z,19.26
2016-05-10T10:43:50.221Z,19.06
2016-05-10T10:44:50.488Z,19.06
2016-05-10T10:45:50.444Z,19.16
2016-05-10T10:46:50.479Z,18.96
2016-05-10T10:47:50.527Z,19.06
2016-05-10T10:48:50.545Z,18.87
2016-05-10T10:49:50.580Z,18.96
2016-05-10T10:50:50.615Z,18.87
2016-05-10T10:51:50.648Z,18.66
2016-05-10T10:52:50.682Z,18.37
2016-05-10T10:53:50.715Z,18.68
2016-05-10T10:54:50.765Z,18.97
2016-05-10T10:55:50.627Z,18.68
2016-05-10T10:56:50.833Z,18.29
2016-05-10T10:57:50.851Z,18.38
2016-05-10T10:58:50.886Z,18.38
2016-05-10T10:59:50.904Z,18.68
2016-05-10T11:00:50.969Z,18.29
2016-05-10T11:01:50.987Z,18.29
2016-05-10T11:02:50.865Z,18.38
2016-05-10T11:03:51.071Z,18.38
2016-05-10T11:04:51.089Z,18.48
2016-05-10T11:05:51.108Z,18.48
2016-05-10T11:06:51.157Z,18.29
2016-05-10T11:07:51.191Z,18.59
2016-05-10T11:08:51.068Z,18.29
2016-05-10T11:09:51.258Z,17.9
2016-05-10T11:10:51.293Z,18.1
2016-05-10T11:11:51.327Z,17.9
2016-05-10T11:12:51.360Z,17.51
2016-05-10T11:13:51.426Z,17.71
2016-05-10T11:14:51.444Z,17.61
2016-05-10T11:15:51.306Z,17.32
2016-05-10T11:16:51.496Z,17.32
2016-05-10T11:17:51.530Z,17.22
2016-05-10T11:18:51.565Z,17.02
2016-05-10T11:19:51.613Z,17.12
2016-05-10T11:20:51.476Z,17.12
2016-05-10T11:21:51.666Z,17.12
2016-05-10T11:22:51.701Z,17.12
2016-05-10T11:23:51.749Z,16.93
2016-05-10T11:24:51.784Z,16.63
2016-05-10T11:25:51.802Z,16.64
2016-05-10T11:26:51.836Z,16.64
2016-05-10T11:27:51.870Z,16.54
2016-05-10T11:28:51.904Z,16.74
2016-05-10T11:29:52.297Z,16.74
2016-05-10T11:30:51.987Z,16.74
2016-05-10T11:31:52.020Z,16.74
2016-05-10T11:32:52.070Z,17.32
2016-05-10T11:33:52.088Z,16.74
2016-05-10T11:34:52.122Z,16.74
2016-05-10T11:35:52.156Z,16.45
2016-05-10T11:36:52.191Z,16.64
2016-05-10T11:37:52.224Z,16.35
2016-05-10T11:38:52.258Z,16.54
2016-05-10T11:39:52.292Z,15.86
2016-05-10T11:40:52.327Z,16.45
2016-05-10T11:41:52.377Z,16.25
2016-05-10T11:42:52.410Z,16.15
2016-05-10T11:43:52.443Z,15.86
2016-05-10T11:44:52.806Z,15.77
2016-05-10T11:45:52.513Z,16.16
2016-05-10T11:46:52.546Z,16.06
2016-05-10T11:47:52.580Z,15.95
2016-05-10T11:48:52.613Z,15.95
2016-05-10T11:49:52.663Z,15.47
2016-05-10T11:50:52.682Z,15.86
2016-05-10T11:51:52.715Z,15.37
2016-05-10T11:52:52.749Z,15.37
2016-05-10T11:53:52.784Z,15.28
2016-05-10T11:54:52.817Z,15.37
2016-05-10T11:55:52.851Z,15.08
2016-05-10T11:56:52.729Z,14.98
2016-05-10T11:57:52.934Z,15.18
2016-05-10T11:58:52.968Z,15.18
2016-05-10T11:59:53.003Z,15.18
2016-05-10T12:00:53.036Z,15.18
2016-05-10T12:01:53.086Z,15.28
2016-05-10T12:02:52.947Z,14.89
2016-05-10T12:03:52.981Z,14.98
2016-05-10T12:04:53.172Z,15.18
2016-05-10T12:05:53.206Z,15.08
2016-05-10T12:06:53.240Z,15.28
2016-05-10T12:07:53.274Z,15.18
2016-05-10T12:08:53.308Z,15.28
2016-05-10T12:09:53.358Z,15.47
2016-05-10T12:10:53.236Z,15.08
2016-05-10T12:11:53.425Z,15.66
2016-05-10T12:12:53.460Z,15.18
2016-05-10T12:13:53.353Z,15.37
2016-05-10T12:14:53.543Z,15.18
2016-05-10T12:15:53.561Z,15.18
2016-05-10T12:16:53.611Z,15.47
2016-05-10T12:17:53.629Z,14.98
2016-05-10T12:18:53.679Z,14.98
2016-05-10T12:19:53.557Z,14.79
2016-05-10T12:20:53.762Z,14.79
2016-05-10T12:21:53.780Z,14.98
2016-05-10T12:22:53.815Z,14.69
2016-05-10T12:23:53.848Z,15.18
2016-05-10T12:24:53.883Z,14.59
2016-05-10T12:25:53.916Z,14.69
2016-05-10T12:26:53.981Z,14.98
2016-05-10T12:27:54.001Z,14.98
2016-05-10T12:28:53.878Z,14.98
2016-05-10T12:29:54.068Z,15.17
2016-05-10T12:30:54.102Z,14.68
2016-05-10T12:31:54.135Z,14.48
2016-05-10T12:32:54.185Z,14.78
2016-05-10T12:33:54.220Z,14.68
2016-05-10T12:34:54.253Z,14.68
2016-05-10T12:35:54.287Z,14.87
2016-05-10T12:36:54.321Z,14.77
2016-05-10T12:37:54.355Z,14.77
2016-05-10T12:38:54.389Z,14.97
2016-05-10T12:39:54.422Z,15.06
2016-05-10T12:40:54.300Z,14.97
2016-05-10T12:41:54.506Z,14.97
2016-05-10T12:42:54.541Z,15.06
2016-05-10T12:43:54.418Z,14.67
2016-05-10T12:44:54.608Z,14.97
2016-05-10T12:45:54.641Z,14.97
2016-05-10T12:46:54.692Z,14.97
2016-05-10T12:47:54.710Z,14.87
2016-05-10T12:48:54.760Z,14.97
2016-05-10T12:49:54.777Z,14.97
2016-05-10T12:50:54.827Z,14.97
2016-05-10T12:51:54.877Z,15.06
2016-05-10T12:52:54.896Z,15.16
2016-05-10T12:53:54.929Z,15.06
2016-05-10T12:54:54.978Z,15.16